sensor_id;sensor_type;location;lat;lon;timestamp;P1;durP1;ratioP1;P2;durP2;ratioP2
4323;SDS011;2175;51.018;6.994;2023-08-01T00:00:12;3.17;;;2.17;;
4323;SDS011;2175;51.018;6.994;2023-08-01T00:02:38;3.40;;;2.17;;
4323;SDS011;2175;51.018;6.994;2023-08-01T00:05:04;3.10;;;2.10;;
4323;SDS011;2175;51.018;6.994;2023-08-01T00:07:30;4.33;;;2.00;;
4323;SDS011;2175;51.018;6.994;2023-08-01T00:09:55;4.50;;;2.50;;
4323;SDS011;2175;51.018;6.994;2023-08-01T00:12:21;3.40;;;2.07;;
4323;SDS011;2175;51.018;6.994;2023-08-01T00:14:48;5.43;;;2.13;;
4323;SDS011;2175;51.018;6.994;2023-08-01T00:17:14;1.93;;;1.53;;
4323;SDS011;2175;51.018;6.994;2023-08-01T00:19:40;4.40;;;2.20;;
4323;SDS011;2175;51.018;6.994;2023-08-01T00:22:05;2.37;;;1.70;;
4323;SDS011;2175;51.018;6.994;2023-08-01T00:24:31;7.50;;;1.90;;
4323;SDS011;2175;51.018;6.994;2023-08-01T00:26:56;3.13;;;2.00;;
4323;SDS011;2175;51.018;6.994;2023-08-01T00:29:22;3.80;;;2.30;;
4323;SDS011;2175;51.018;6.994;2023-08-01T00:31:48;5.13;;;2.20;;
4323;SDS011;2175;51.018;6.994;2023-08-01T00:34:14;3.27;;;2.27;;
4323;SDS011;2175;51.018;6.994;2023-08-01T00:36:40;4.60;;;1.77;;
4323;SDS011;2175;51.018;6.994;2023-08-01T00:39:05;3.00;;;1.90;;
4323;SDS011;2175;51.018;6.994;2023-08-01T00:41:31;4.47;;;2.10;;
4323;SDS011;2175;51.018;6.994;2023-08-01T00:43:56;3.77;;;2.00;;
4323;SDS011;2175;51.018;6.994;2023-08-01T00:46:22;5.97;;;2.37;;
4323;SDS011;2175;51.018;6.994;2023-08-01T00:48:48;4.53;;;2.27;;
4323;SDS011;2175;51.018;6.994;2023-08-01T00:51:14;9.07;;;2.23;;
4323;SDS011;2175;51.018;6.994;2023-08-01T00:53:42;2.67;;;1.97;;
4323;SDS011;2175;51.018;6.994;2023-08-01T00:56:10;3.50;;;1.87;;
4323;SDS011;2175;51.018;6.994;2023-08-01T00:58:36;2.00;;;1.70;;
4323;SDS011;2175;51.018;6.994;2023-08-01T01:01:01;4.23;;;1.97;;
4323;SDS011;2175;51.018;6.994;2023-08-01T01:03:28;3.93;;;2.03;;
4323;SDS011;2175;51.018;6.994;2023-08-01T01:06:09;6.40;;;2.30;;
4323;SDS011;2175;51.018;6.994;2023-08-01T01:08:44;2.33;;;1.90;;
4323;SDS011;2175;51.018;6.994;2023-08-01T01:11:10;4.07;;;1.90;;
4323;SDS011;2175;51.018;6.994;2023-08-01T01:13:36;4.30;;;2.23;;
4323;SDS011;2175;51.018;6.994;2023-08-01T01:16:02;3.50;;;2.00;;
4323;SDS011;2175;51.018;6.994;2023-08-01T01:18:28;3.30;;;1.50;;
4323;SDS011;2175;51.018;6.994;2023-08-01T01:20:53;7.60;;;2.10;;
4323;SDS011;2175;51.018;6.994;2023-08-01T01:23:19;6.13;;;1.70;;
4323;SDS011;2175;51.018;6.994;2023-08-01T01:25:46;4.90;;;1.50;;
4323;SDS011;2175;51.018;6.994;2023-08-01T01:28:14;5.60;;;1.80;;
4323;SDS011;2175;51.018;6.994;2023-08-01T01:30:41;3.40;;;1.53;;
4323;SDS011;2175;51.018;6.994;2023-08-01T01:33:08;3.43;;;1.53;;
4323;SDS011;2175;51.018;6.994;2023-08-01T01:35:35;3.77;;;1.43;;
4323;SDS011;2175;51.018;6.994;2023-08-01T01:38:01;3.23;;;1.50;;
4323;SDS011;2175;51.018;6.994;2023-08-01T01:40:31;8.63;;;1.70;;
4323;SDS011;2175;51.018;6.994;2023-08-01T01:42:58;5.23;;;1.60;;
4323;SDS011;2175;51.018;6.994;2023-08-01T01:45:24;2.13;;;1.57;;
4323;SDS011;2175;51.018;6.994;2023-08-01T01:47:50;6.40;;;1.40;;
4323;SDS011;2175;51.018;6.994;2023-08-01T01:50:16;2.30;;;1.40;;
4323;SDS011;2175;51.018;6.994;2023-08-01T01:52:42;2.60;;;1.43;;
4323;SDS011;2175;51.018;6.994;2023-08-01T01:55:08;6.00;;;1.13;;
4323;SDS011;2175;51.018;6.994;2023-08-01T01:57:34;1.80;;;1.30;;
4323;SDS011;2175;51.018;6.994;2023-08-01T02:00:01;1.57;;;1.37;;
4323;SDS011;2175;51.018;6.994;2023-08-01T02:02:27;3.17;;;2.27;;
4323;SDS011;2175;51.018;6.994;2023-08-01T02:04:53;3.20;;;2.40;;
4323;SDS011;2175;51.018;6.994;2023-08-01T02:07:18;5.53;;;2.40;;
4323;SDS011;2175;51.018;6.994;2023-08-01T02:09:44;3.83;;;2.90;;
4323;SDS011;2175;51.018;6.994;2023-08-01T02:12:09;4.00;;;2.77;;
4323;SDS011;2175;51.018;6.994;2023-08-01T02:14:38;6.23;;;4.73;;
4323;SDS011;2175;51.018;6.994;2023-08-01T02:17:04;5.20;;;4.30;;
4323;SDS011;2175;51.018;6.994;2023-08-01T02:19:30;5.60;;;3.80;;
4323;SDS011;2175;51.018;6.994;2023-08-01T02:21:55;6.30;;;4.33;;
4323;SDS011;2175;51.018;6.994;2023-08-01T02:24:21;4.60;;;3.30;;
4323;SDS011;2175;51.018;6.994;2023-08-01T02:26:47;4.70;;;3.00;;
4323;SDS011;2175;51.018;6.994;2023-08-01T02:29:14;5.57;;;5.07;;
4323;SDS011;2175;51.018;6.994;2023-08-01T02:31:39;2.20;;;1.93;;
4323;SDS011;2175;51.018;6.994;2023-08-01T02:34:05;3.40;;;1.80;;
4323;SDS011;2175;51.018;6.994;2023-08-01T02:36:30;4.50;;;1.70;;
4323;SDS011;2175;51.018;6.994;2023-08-01T02:38:56;2.83;;;1.70;;
4323;SDS011;2175;51.018;6.994;2023-08-01T02:41:22;1.70;;;1.30;;
4323;SDS011;2175;51.018;6.994;2023-08-01T02:43:47;2.53;;;1.60;;
4323;SDS011;2175;51.018;6.994;2023-08-01T02:46:13;2.53;;;1.77;;
4323;SDS011;2175;51.018;6.994;2023-08-01T02:48:38;4.37;;;1.80;;
4323;SDS011;2175;51.018;6.994;2023-08-01T02:51:04;2.70;;;1.70;;
4323;SDS011;2175;51.018;6.994;2023-08-01T02:53:31;3.70;;;1.83;;
4323;SDS011;2175;51.018;6.994;2023-08-01T02:55:57;5.23;;;2.23;;
4323;SDS011;2175;51.018;6.994;2023-08-01T02:58:22;4.33;;;2.70;;
4323;SDS011;2175;51.018;6.994;2023-08-01T03:00:48;3.60;;;2.50;;
4323;SDS011;2175;51.018;6.994;2023-08-01T03:03:13;3.17;;;2.30;;
4323;SDS011;2175;51.018;6.994;2023-08-01T03:05:40;2.90;;;1.93;;
4323;SDS011;2175;51.018;6.994;2023-08-01T03:08:05;3.47;;;2.10;;
4323;SDS011;2175;51.018;6.994;2023-08-01T03:10:31;4.70;;;1.70;;
4323;SDS011;2175;51.018;6.994;2023-08-01T03:12:56;8.80;;;2.43;;
4323;SDS011;2175;51.018;6.994;2023-08-01T03:15:22;3.57;;;2.07;;
4323;SDS011;2175;51.018;6.994;2023-08-01T03:17:47;2.77;;;1.70;;
4323;SDS011;2175;51.018;6.994;2023-08-01T03:20:13;4.60;;;2.40;;
4323;SDS011;2175;51.018;6.994;2023-08-01T03:22:39;2.80;;;2.20;;
4323;SDS011;2175;51.018;6.994;2023-08-01T03:25:06;4.13;;;2.10;;
4323;SDS011;2175;51.018;6.994;2023-08-01T03:27:35;4.87;;;3.57;;
4323;SDS011;2175;51.018;6.994;2023-08-01T03:30:00;7.10;;;5.53;;
4323;SDS011;2175;51.018;6.994;2023-08-01T03:32:26;8.70;;;6.60;;
4323;SDS011;2175;51.018;6.994;2023-08-01T03:34:52;8.63;;;7.50;;
4323;SDS011;2175;51.018;6.994;2023-08-01T03:37:17;15.43;;;9.27;;
4323;SDS011;2175;51.018;6.994;2023-08-01T03:39:43;10.33;;;8.07;;
4323;SDS011;2175;51.018;6.994;2023-08-01T03:42:09;8.57;;;7.37;;
4323;SDS011;2175;51.018;6.994;2023-08-01T03:44:35;10.60;;;8.60;;
4323;SDS011;2175;51.018;6.994;2023-08-01T03:47:00;13.63;;;7.90;;
4323;SDS011;2175;51.018;6.994;2023-08-01T03:49:26;10.30;;;7.63;;
4323;SDS011;2175;51.018;6.994;2023-08-01T03:51:52;14.70;;;8.83;;
4323;SDS011;2175;51.018;6.994;2023-08-01T03:54:17;11.40;;;8.70;;
4323;SDS011;2175;51.018;6.994;2023-08-01T03:56:43;11.57;;;9.63;;
4323;SDS011;2175;51.018;6.994;2023-08-01T03:59:15;11.80;;;10.60;;
4323;SDS011;2175;51.018;6.994;2023-08-01T04:01:42;14.97;;;13.23;;
4323;SDS011;2175;51.018;6.994;2023-08-01T04:04:08;19.93;;;14.90;;
4323;SDS011;2175;51.018;6.994;2023-08-01T04:06:34;18.73;;;16.50;;
4323;SDS011;2175;51.018;6.994;2023-08-01T04:09:00;23.93;;;19.20;;
4323;SDS011;2175;51.018;6.994;2023-08-01T04:11:26;19.73;;;17.43;;
4323;SDS011;2175;51.018;6.994;2023-08-01T04:13:52;21.13;;;18.70;;
4323;SDS011;2175;51.018;6.994;2023-08-01T04:16:18;22.60;;;20.40;;
4323;SDS011;2175;51.018;6.994;2023-08-01T04:18:44;26.73;;;23.90;;
4323;SDS011;2175;51.018;6.994;2023-08-01T04:21:09;31.97;;;28.70;;
4323;SDS011;2175;51.018;6.994;2023-08-01T04:23:37;33.47;;;29.97;;
4323;SDS011;2175;51.018;6.994;2023-08-01T04:26:02;35.77;;;32.20;;
4323;SDS011;2175;51.018;6.994;2023-08-01T04:28:31;31.73;;;28.40;;
4323;SDS011;2175;51.018;6.994;2023-08-01T04:30:57;33.13;;;29.63;;
4323;SDS011;2175;51.018;6.994;2023-08-01T04:33:22;35.73;;;30.87;;
4323;SDS011;2175;51.018;6.994;2023-08-01T04:35:48;33.87;;;30.23;;
4323;SDS011;2175;51.018;6.994;2023-08-01T04:38:14;33.87;;;29.70;;
4323;SDS011;2175;51.018;6.994;2023-08-01T04:40:40;31.40;;;27.50;;
4323;SDS011;2175;51.018;6.994;2023-08-01T04:43:05;32.27;;;26.10;;
4323;SDS011;2175;51.018;6.994;2023-08-01T04:45:31;25.93;;;22.53;;
4323;SDS011;2175;51.018;6.994;2023-08-01T04:47:56;31.77;;;24.93;;
4323;SDS011;2175;51.018;6.994;2023-08-01T04:50:22;29.80;;;23.07;;
4323;SDS011;2175;51.018;6.994;2023-08-01T04:52:48;28.00;;;23.10;;
4323;SDS011;2175;51.018;6.994;2023-08-01T04:55:13;24.43;;;20.37;;
4323;SDS011;2175;51.018;6.994;2023-08-01T04:57:39;22.83;;;18.77;;
4323;SDS011;2175;51.018;6.994;2023-08-01T05:00:05;18.53;;;12.67;;
4323;SDS011;2175;51.018;6.994;2023-08-01T05:02:31;17.03;;;12.83;;
4323;SDS011;2175;51.018;6.994;2023-08-01T05:04:57;18.10;;;11.50;;
4323;SDS011;2175;51.018;6.994;2023-08-01T05:07:22;15.37;;;9.53;;
4323;SDS011;2175;51.018;6.994;2023-08-01T05:09:48;14.00;;;9.20;;
4323;SDS011;2175;51.018;6.994;2023-08-01T05:12:13;10.73;;;8.37;;
4323;SDS011;2175;51.018;6.994;2023-08-01T05:14:39;14.03;;;8.40;;
4323;SDS011;2175;51.018;6.994;2023-08-01T05:17:05;12.60;;;7.77;;
4323;SDS011;2175;51.018;6.994;2023-08-01T05:19:31;16.23;;;8.50;;
4323;SDS011;2175;51.018;6.994;2023-08-01T05:21:56;14.90;;;8.63;;
4323;SDS011;2175;51.018;6.994;2023-08-01T05:24:22;11.20;;;8.63;;
4323;SDS011;2175;51.018;6.994;2023-08-01T05:26:48;16.13;;;9.67;;
4323;SDS011;2175;51.018;6.994;2023-08-01T05:29:13;16.20;;;10.20;;
4323;SDS011;2175;51.018;6.994;2023-08-01T05:31:39;16.20;;;9.73;;
4323;SDS011;2175;51.018;6.994;2023-08-01T05:34:05;14.47;;;9.90;;
4323;SDS011;2175;51.018;6.994;2023-08-01T05:36:30;16.20;;;9.93;;
4323;SDS011;2175;51.018;6.994;2023-08-01T05:38:56;14.87;;;9.60;;
4323;SDS011;2175;51.018;6.994;2023-08-01T05:41:22;15.50;;;9.00;;
4323;SDS011;2175;51.018;6.994;2023-08-01T05:43:48;14.03;;;8.63;;
4323;SDS011;2175;51.018;6.994;2023-08-01T05:46:14;18.40;;;8.10;;
4323;SDS011;2175;51.018;6.994;2023-08-01T05:48:40;12.40;;;8.37;;
4323;SDS011;2175;51.018;6.994;2023-08-01T05:51:05;12.27;;;8.60;;
4323;SDS011;2175;51.018;6.994;2023-08-01T05:53:31;18.37;;;8.63;;
4323;SDS011;2175;51.018;6.994;2023-08-01T05:55:56;26.03;;;8.57;;
4323;SDS011;2175;51.018;6.994;2023-08-01T05:58:22;12.13;;;8.10;;
4323;SDS011;2175;51.018;6.994;2023-08-01T06:00:48;14.03;;;8.50;;
4323;SDS011;2175;51.018;6.994;2023-08-01T06:03:14;12.03;;;7.40;;
4323;SDS011;2175;51.018;6.994;2023-08-01T06:05:39;12.50;;;7.43;;
4323;SDS011;2175;51.018;6.994;2023-08-01T06:08:06;12.97;;;8.37;;
4323;SDS011;2175;51.018;6.994;2023-08-01T06:10:32;10.93;;;6.90;;
4323;SDS011;2175;51.018;6.994;2023-08-01T06:12:58;14.77;;;8.47;;
4323;SDS011;2175;51.018;6.994;2023-08-01T06:15:24;13.93;;;7.53;;
4323;SDS011;2175;51.018;6.994;2023-08-01T06:17:49;10.73;;;7.20;;
4323;SDS011;2175;51.018;6.994;2023-08-01T06:20:15;13.50;;;6.50;;
4323;SDS011;2175;51.018;6.994;2023-08-01T06:22:41;12.73;;;7.80;;
4323;SDS011;2175;51.018;6.994;2023-08-01T06:25:07;13.40;;;7.03;;
4323;SDS011;2175;51.018;6.994;2023-08-01T06:27:33;11.97;;;6.90;;
4323;SDS011;2175;51.018;6.994;2023-08-01T06:29:58;12.67;;;7.53;;
4323;SDS011;2175;51.018;6.994;2023-08-01T06:32:24;11.77;;;6.70;;
4323;SDS011;2175;51.018;6.994;2023-08-01T06:34:50;12.40;;;6.87;;
4323;SDS011;2175;51.018;6.994;2023-08-01T06:37:16;14.10;;;6.80;;
4323;SDS011;2175;51.018;6.994;2023-08-01T06:39:41;9.43;;;6.93;;
4323;SDS011;2175;51.018;6.994;2023-08-01T06:42:07;9.77;;;6.40;;
4323;SDS011;2175;51.018;6.994;2023-08-01T06:44:33;13.53;;;7.27;;
4323;SDS011;2175;51.018;6.994;2023-08-01T06:46:59;11.73;;;7.47;;
4323;SDS011;2175;51.018;6.994;2023-08-01T06:49:24;14.97;;;7.47;;
4323;SDS011;2175;51.018;6.994;2023-08-01T06:51:50;11.90;;;7.27;;
4323;SDS011;2175;51.018;6.994;2023-08-01T06:54:16;14.93;;;7.73;;
4323;SDS011;2175;51.018;6.994;2023-08-01T06:56:41;10.53;;;6.57;;
4323;SDS011;2175;51.018;6.994;2023-08-01T06:59:12;11.40;;;7.03;;
4323;SDS011;2175;51.018;6.994;2023-08-01T07:01:41;11.27;;;6.70;;
4323;SDS011;2175;51.018;6.994;2023-08-01T07:04:11;14.87;;;7.50;;
4323;SDS011;2175;51.018;6.994;2023-08-01T07:06:37;17.30;;;6.97;;
4323;SDS011;2175;51.018;6.994;2023-08-01T07:09:04;13.60;;;7.27;;
4323;SDS011;2175;51.018;6.994;2023-08-01T07:11:30;13.20;;;7.73;;
4323;SDS011;2175;51.018;6.994;2023-08-01T07:13:55;13.30;;;7.23;;
4323;SDS011;2175;51.018;6.994;2023-08-01T07:16:21;10.93;;;7.23;;
4323;SDS011;2175;51.018;6.994;2023-08-01T07:18:47;11.40;;;6.73;;
4323;SDS011;2175;51.018;6.994;2023-08-01T07:21:13;12.07;;;7.70;;
4323;SDS011;2175;51.018;6.994;2023-08-01T07:23:39;12.07;;;7.33;;
4323;SDS011;2175;51.018;6.994;2023-08-01T07:26:05;12.20;;;7.13;;
4323;SDS011;2175;51.018;6.994;2023-08-01T07:28:31;12.13;;;7.50;;
4323;SDS011;2175;51.018;6.994;2023-08-01T07:31:04;18.03;;;7.87;;
4323;SDS011;2175;51.018;6.994;2023-08-01T07:33:31;18.57;;;8.10;;
4323;SDS011;2175;51.018;6.994;2023-08-01T07:35:57;11.60;;;7.47;;
4323;SDS011;2175;51.018;6.994;2023-08-01T07:38:23;23.40;;;8.30;;
4323;SDS011;2175;51.018;6.994;2023-08-01T07:40:49;14.13;;;7.97;;
4323;SDS011;2175;51.018;6.994;2023-08-01T07:43:14;14.10;;;7.67;;
4323;SDS011;2175;51.018;6.994;2023-08-01T07:45:40;13.13;;;8.00;;
4323;SDS011;2175;51.018;6.994;2023-08-01T07:48:06;11.47;;;7.20;;
4323;SDS011;2175;51.018;6.994;2023-08-01T07:50:31;14.97;;;7.50;;
4323;SDS011;2175;51.018;6.994;2023-08-01T07:52:57;9.40;;;6.90;;
4323;SDS011;2175;51.018;6.994;2023-08-01T07:55:23;20.47;;;7.17;;
4323;SDS011;2175;51.018;6.994;2023-08-01T07:57:48;10.03;;;7.60;;
4323;SDS011;2175;51.018;6.994;2023-08-01T08:00:14;12.13;;;7.70;;
4323;SDS011;2175;51.018;6.994;2023-08-01T08:02:44;16.40;;;7.40;;
4323;SDS011;2175;51.018;6.994;2023-08-01T08:05:10;15.73;;;7.10;;
4323;SDS011;2175;51.018;6.994;2023-08-01T08:07:37;13.60;;;7.20;;
4323;SDS011;2175;51.018;6.994;2023-08-01T08:10:03;14.80;;;7.73;;
4323;SDS011;2175;51.018;6.994;2023-08-01T08:12:30;17.97;;;7.07;;
4323;SDS011;2175;51.018;6.994;2023-08-01T08:14:56;14.97;;;7.57;;
4323;SDS011;2175;51.018;6.994;2023-08-01T08:17:21;12.67;;;7.00;;
4323;SDS011;2175;51.018;6.994;2023-08-01T08:19:47;13.73;;;7.53;;
4323;SDS011;2175;51.018;6.994;2023-08-01T08:22:13;14.37;;;7.10;;
4323;SDS011;2175;51.018;6.994;2023-08-01T08:24:38;12.77;;;6.40;;
4323;SDS011;2175;51.018;6.994;2023-08-01T08:27:04;12.47;;;6.07;;
4323;SDS011;2175;51.018;6.994;2023-08-01T08:29:31;10.10;;;6.27;;
4323;SDS011;2175;51.018;6.994;2023-08-01T08:31:57;10.40;;;5.60;;
4323;SDS011;2175;51.018;6.994;2023-08-01T08:34:23;16.30;;;6.77;;
4323;SDS011;2175;51.018;6.994;2023-08-01T08:36:49;12.37;;;5.80;;
4323;SDS011;2175;51.018;6.994;2023-08-01T08:39:16;11.53;;;6.87;;
4323;SDS011;2175;51.018;6.994;2023-08-01T08:41:45;9.30;;;5.87;;
4323;SDS011;2175;51.018;6.994;2023-08-01T08:44:15;11.00;;;6.17;;
4323;SDS011;2175;51.018;6.994;2023-08-01T08:46:42;13.20;;;6.60;;
4323;SDS011;2175;51.018;6.994;2023-08-01T08:49:09;12.97;;;6.10;;
4323;SDS011;2175;51.018;6.994;2023-08-01T08:51:38;11.90;;;6.93;;
4323;SDS011;2175;51.018;6.994;2023-08-01T08:54:04;11.77;;;6.30;;
4323;SDS011;2175;51.018;6.994;2023-08-01T08:56:33;10.83;;;6.50;;
4323;SDS011;2175;51.018;6.994;2023-08-01T08:59:00;15.90;;;5.40;;
4323;SDS011;2175;51.018;6.994;2023-08-01T09:01:26;10.30;;;5.87;;
4323;SDS011;2175;51.018;6.994;2023-08-01T09:03:52;12.60;;;5.60;;
4323;SDS011;2175;51.018;6.994;2023-08-01T09:06:24;10.00;;;5.30;;
4323;SDS011;2175;51.018;6.994;2023-08-01T09:09:09;18.57;;;5.90;;
4323;SDS011;2175;51.018;6.994;2023-08-01T09:11:42;11.97;;;5.50;;
4323;SDS011;2175;51.018;6.994;2023-08-01T09:14:09;10.40;;;5.43;;
4323;SDS011;2175;51.018;6.994;2023-08-01T09:16:35;14.83;;;5.43;;
4323;SDS011;2175;51.018;6.994;2023-08-01T09:19:01;10.03;;;5.20;;
4323;SDS011;2175;51.018;6.994;2023-08-01T09:21:27;9.63;;;5.63;;
4323;SDS011;2175;51.018;6.994;2023-08-01T09:24:10;8.60;;;5.60;;
4323;SDS011;2175;51.018;6.994;2023-08-01T09:26:37;8.03;;;5.00;;
4323;SDS011;2175;51.018;6.994;2023-08-01T09:29:03;8.97;;;5.03;;
4323;SDS011;2175;51.018;6.994;2023-08-01T09:31:29;12.93;;;5.80;;
4323;SDS011;2175;51.018;6.994;2023-08-01T09:33:56;10.70;;;6.00;;
4323;SDS011;2175;51.018;6.994;2023-08-01T09:36:22;15.83;;;6.87;;
4323;SDS011;2175;51.018;6.994;2023-08-01T09:38:50;14.00;;;6.30;;
4323;SDS011;2175;51.018;6.994;2023-08-01T09:41:18;14.87;;;6.70;;
4323;SDS011;2175;51.018;6.994;2023-08-01T09:43:47;9.43;;;5.60;;
4323;SDS011;2175;51.018;6.994;2023-08-01T09:46:14;11.50;;;5.47;;
4323;SDS011;2175;51.018;6.994;2023-08-01T09:48:40;14.30;;;6.13;;
4323;SDS011;2175;51.018;6.994;2023-08-01T09:51:07;8.43;;;4.70;;
4323;SDS011;2175;51.018;6.994;2023-08-01T09:53:34;13.20;;;4.90;;
4323;SDS011;2175;51.018;6.994;2023-08-01T09:56:01;7.50;;;4.60;;
4323;SDS011;2175;51.018;6.994;2023-08-01T09:58:33;10.70;;;4.67;;
4323;SDS011;2175;51.018;6.994;2023-08-01T10:01:00;11.63;;;5.27;;
4323;SDS011;2175;51.018;6.994;2023-08-01T10:03:29;8.13;;;4.60;;
4323;SDS011;2175;51.018;6.994;2023-08-01T10:05:55;13.30;;;4.70;;
4323;SDS011;2175;51.018;6.994;2023-08-01T10:08:22;12.60;;;4.87;;
4323;SDS011;2175;51.018;6.994;2023-08-01T10:10:49;8.80;;;4.80;;
4323;SDS011;2175;51.018;6.994;2023-08-01T10:13:16;9.63;;;5.30;;
4323;SDS011;2175;51.018;6.994;2023-08-01T10:15:43;8.17;;;4.43;;
4323;SDS011;2175;51.018;6.994;2023-08-01T10:18:09;7.03;;;4.70;;
4323;SDS011;2175;51.018;6.994;2023-08-01T10:20:36;9.33;;;4.43;;
4323;SDS011;2175;51.018;6.994;2023-08-01T10:23:03;10.63;;;4.00;;
4323;SDS011;2175;51.018;6.994;2023-08-01T10:25:30;7.80;;;4.57;;
4323;SDS011;2175;51.018;6.994;2023-08-01T10:28:00;6.50;;;4.20;;
4323;SDS011;2175;51.018;6.994;2023-08-01T10:30:27;6.47;;;4.20;;
4323;SDS011;2175;51.018;6.994;2023-08-01T10:32:56;7.43;;;4.13;;
4323;SDS011;2175;51.018;6.994;2023-08-01T10:35:35;9.10;;;4.60;;
4323;SDS011;2175;51.018;6.994;2023-08-01T10:38:11;8.97;;;4.83;;
4323;SDS011;2175;51.018;6.994;2023-08-01T10:40:38;13.53;;;4.23;;
4323;SDS011;2175;51.018;6.994;2023-08-01T10:43:05;8.67;;;4.47;;
4323;SDS011;2175;51.018;6.994;2023-08-01T10:45:31;8.93;;;4.27;;
4323;SDS011;2175;51.018;6.994;2023-08-01T10:48:07;15.63;;;4.87;;
4323;SDS011;2175;51.018;6.994;2023-08-01T10:50:33;7.73;;;4.63;;
4323;SDS011;2175;51.018;6.994;2023-08-01T10:53:06;11.17;;;4.97;;
4323;SDS011;2175;51.018;6.994;2023-08-01T10:55:40;9.17;;;4.60;;
4323;SDS011;2175;51.018;6.994;2023-08-01T10:58:07;8.10;;;4.70;;
4323;SDS011;2175;51.018;6.994;2023-08-01T11:00:33;9.13;;;5.60;;
4323;SDS011;2175;51.018;6.994;2023-08-01T11:02:58;8.00;;;4.77;;
4323;SDS011;2175;51.018;6.994;2023-08-01T11:05:24;7.93;;;4.07;;
4323;SDS011;2175;51.018;6.994;2023-08-01T11:07:58;10.90;;;4.83;;
4323;SDS011;2175;51.018;6.994;2023-08-01T11:10:25;8.77;;;3.97;;
4323;SDS011;2175;51.018;6.994;2023-08-01T11:12:52;7.83;;;4.13;;
4323;SDS011;2175;51.018;6.994;2023-08-01T11:15:20;8.80;;;3.73;;
4323;SDS011;2175;51.018;6.994;2023-08-01T11:17:47;16.53;;;3.80;;
4323;SDS011;2175;51.018;6.994;2023-08-01T11:20:14;7.47;;;4.17;;
4323;SDS011;2175;51.018;6.994;2023-08-01T11:25:17;9.40;;;3.53;;
4323;SDS011;2175;51.018;6.994;2023-08-01T11:27:42;7.83;;;3.50;;
4323;SDS011;2175;51.018;6.994;2023-08-01T11:30:08;6.17;;;3.27;;
4323;SDS011;2175;51.018;6.994;2023-08-01T11:32:34;7.03;;;3.20;;
4323;SDS011;2175;51.018;6.994;2023-08-01T11:35:01;6.90;;;3.37;;
4323;SDS011;2175;51.018;6.994;2023-08-01T11:37:29;6.97;;;3.00;;
4323;SDS011;2175;51.018;6.994;2023-08-01T11:39:56;6.27;;;3.30;;
4323;SDS011;2175;51.018;6.994;2023-08-01T11:42:22;9.53;;;3.80;;
4323;SDS011;2175;51.018;6.994;2023-08-01T11:44:48;6.40;;;3.07;;
4323;SDS011;2175;51.018;6.994;2023-08-01T11:47:14;7.27;;;3.40;;
4323;SDS011;2175;51.018;6.994;2023-08-01T11:49:49;11.93;;;3.23;;
4323;SDS011;2175;51.018;6.994;2023-08-01T11:52:22;6.33;;;3.53;;
4323;SDS011;2175;51.018;6.994;2023-08-01T11:54:49;7.90;;;4.37;;
4323;SDS011;2175;51.018;6.994;2023-08-01T11:57:15;7.83;;;3.93;;
4323;SDS011;2175;51.018;6.994;2023-08-01T11:59:51;7.60;;;3.00;;
4323;SDS011;2175;51.018;6.994;2023-08-01T12:02:26;5.23;;;3.20;;
4323;SDS011;2175;51.018;6.994;2023-08-01T12:04:53;9.53;;;3.77;;
4323;SDS011;2175;51.018;6.994;2023-08-01T12:07:19;8.10;;;3.30;;
4323;SDS011;2175;51.018;6.994;2023-08-01T12:09:55;9.67;;;4.07;;
4323;SDS011;2175;51.018;6.994;2023-08-01T12:12:22;8.57;;;3.53;;
4323;SDS011;2175;51.018;6.994;2023-08-01T12:14:48;19.77;;;6.70;;
4323;SDS011;2175;51.018;6.994;2023-08-01T12:17:14;27.13;;;9.67;;
4323;SDS011;2175;51.018;6.994;2023-08-01T12:19:40;26.13;;;9.07;;
4323;SDS011;2175;51.018;6.994;2023-08-01T12:22:05;17.27;;;6.93;;
4323;SDS011;2175;51.018;6.994;2023-08-01T12:24:31;25.70;;;8.20;;
4323;SDS011;2175;51.018;6.994;2023-08-01T12:26:58;12.00;;;5.30;;
4323;SDS011;2175;51.018;6.994;2023-08-01T12:29:24;10.17;;;4.60;;
4323;SDS011;2175;51.018;6.994;2023-08-01T12:31:49;7.50;;;3.83;;
4323;SDS011;2175;51.018;6.994;2023-08-01T12:34:15;9.70;;;3.80;;
4323;SDS011;2175;51.018;6.994;2023-08-01T12:36:41;9.70;;;4.20;;
4323;SDS011;2175;51.018;6.994;2023-08-01T12:39:06;11.60;;;4.57;;
4323;SDS011;2175;51.018;6.994;2023-08-01T12:41:35;17.73;;;6.33;;
4323;SDS011;2175;51.018;6.994;2023-08-01T12:44:02;12.03;;;5.33;;
4323;SDS011;2175;51.018;6.994;2023-08-01T12:46:28;16.10;;;5.33;;
4323;SDS011;2175;51.018;6.994;2023-08-01T12:48:53;11.13;;;6.23;;
4323;SDS011;2175;51.018;6.994;2023-08-01T12:51:19;11.87;;;6.37;;
4323;SDS011;2175;51.018;6.994;2023-08-01T12:53:44;13.77;;;6.70;;
4323;SDS011;2175;51.018;6.994;2023-08-01T12:56:10;13.43;;;8.50;;
4323;SDS011;2175;51.018;6.994;2023-08-01T12:58:36;11.63;;;8.20;;
4323;SDS011;2175;51.018;6.994;2023-08-01T13:01:02;15.00;;;6.70;;
4323;SDS011;2175;51.018;6.994;2023-08-01T13:03:31;13.27;;;8.50;;
4323;SDS011;2175;51.018;6.994;2023-08-01T13:05:57;12.53;;;7.63;;
4323;SDS011;2175;51.018;6.994;2023-08-01T13:08:23;10.17;;;6.50;;
4323;SDS011;2175;51.018;6.994;2023-08-01T13:10:48;12.93;;;8.03;;
4323;SDS011;2175;51.018;6.994;2023-08-01T13:13:15;8.23;;;5.87;;
4323;SDS011;2175;51.018;6.994;2023-08-01T13:15:41;13.10;;;7.20;;
4323;SDS011;2175;51.018;6.994;2023-08-01T13:18:07;9.50;;;4.83;;
4323;SDS011;2175;51.018;6.994;2023-08-01T13:20:34;8.27;;;4.57;;
4323;SDS011;2175;51.018;6.994;2023-08-01T13:22:59;11.00;;;5.90;;
4323;SDS011;2175;51.018;6.994;2023-08-01T13:25:25;6.87;;;3.80;;
4323;SDS011;2175;51.018;6.994;2023-08-01T13:27:50;17.60;;;6.90;;
4323;SDS011;2175;51.018;6.994;2023-08-01T13:30:16;14.07;;;5.70;;
4323;SDS011;2175;51.018;6.994;2023-08-01T13:32:43;18.27;;;5.57;;
4323;SDS011;2175;51.018;6.994;2023-08-01T13:35:10;10.00;;;4.73;;
4323;SDS011;2175;51.018;6.994;2023-08-01T13:37:35;8.07;;;4.70;;
4323;SDS011;2175;51.018;6.994;2023-08-01T13:40:01;10.83;;;4.70;;
4323;SDS011;2175;51.018;6.994;2023-08-01T13:42:28;13.00;;;4.77;;
4323;SDS011;2175;51.018;6.994;2023-08-01T13:44:54;33.40;;;10.00;;
4323;SDS011;2175;51.018;6.994;2023-08-01T13:47:19;30.97;;;10.30;;
4323;SDS011;2175;51.018;6.994;2023-08-01T13:49:51;34.13;;;11.33;;
4323;SDS011;2175;51.018;6.994;2023-08-01T13:52:16;37.17;;;11.93;;
4323;SDS011;2175;51.018;6.994;2023-08-01T13:54:42;29.13;;;10.47;;
4323;SDS011;2175;51.018;6.994;2023-08-01T13:57:07;29.10;;;9.10;;
4323;SDS011;2175;51.018;6.994;2023-08-01T13:59:33;16.47;;;6.80;;
4323;SDS011;2175;51.018;6.994;2023-08-01T14:01:58;10.63;;;4.73;;
4323;SDS011;2175;51.018;6.994;2023-08-01T14:04:24;8.03;;;4.83;;
4323;SDS011;2175;51.018;6.994;2023-08-01T14:06:49;8.47;;;5.10;;
4323;SDS011;2175;51.018;6.994;2023-08-01T14:09:15;16.43;;;4.90;;
4323;SDS011;2175;51.018;6.994;2023-08-01T14:11:41;9.40;;;4.60;;
4323;SDS011;2175;51.018;6.994;2023-08-01T14:14:06;9.80;;;4.63;;
4323;SDS011;2175;51.018;6.994;2023-08-01T14:16:32;9.33;;;5.30;;
4323;SDS011;2175;51.018;6.994;2023-08-01T14:18:58;7.67;;;4.63;;
4323;SDS011;2175;51.018;6.994;2023-08-01T14:21:24;8.63;;;4.63;;
4323;SDS011;2175;51.018;6.994;2023-08-01T14:23:50;13.97;;;5.10;;
4323;SDS011;2175;51.018;6.994;2023-08-01T14:26:15;10.37;;;5.10;;
4323;SDS011;2175;51.018;6.994;2023-08-01T14:28:41;9.30;;;5.40;;
4323;SDS011;2175;51.018;6.994;2023-08-01T14:31:07;12.23;;;6.23;;
4323;SDS011;2175;51.018;6.994;2023-08-01T14:33:33;10.90;;;6.40;;
4323;SDS011;2175;51.018;6.994;2023-08-01T14:35:59;13.80;;;8.30;;
4323;SDS011;2175;51.018;6.994;2023-08-01T14:38:25;12.77;;;8.30;;
4323;SDS011;2175;51.018;6.994;2023-08-01T14:40:54;10.50;;;5.67;;
4323;SDS011;2175;51.018;6.994;2023-08-01T14:43:19;9.63;;;5.00;;
4323;SDS011;2175;51.018;6.994;2023-08-01T14:45:45;11.70;;;5.27;;
4323;SDS011;2175;51.018;6.994;2023-08-01T14:48:11;9.33;;;5.20;;
4323;SDS011;2175;51.018;6.994;2023-08-01T14:50:39;11.40;;;5.53;;
4323;SDS011;2175;51.018;6.994;2023-08-01T14:53:05;8.97;;;4.50;;
4323;SDS011;2175;51.018;6.994;2023-08-01T14:55:32;6.47;;;4.47;;
4323;SDS011;2175;51.018;6.994;2023-08-01T14:57:58;7.43;;;3.90;;
4323;SDS011;2175;51.018;6.994;2023-08-01T15:00:24;9.00;;;4.30;;
4323;SDS011;2175;51.018;6.994;2023-08-01T15:02:50;8.03;;;4.50;;
4323;SDS011;2175;51.018;6.994;2023-08-01T15:05:16;6.33;;;3.30;;